createdAt,value
2019-02-17T00:00:02.475Z,6.93
2019-02-17T00:05:05.940Z,6.97
2019-02-17T00:10:12.199Z,6.73
2019-02-17T00:15:04.227Z,6.46
2019-02-17T00:20:04.940Z,6.64
2019-02-17T00:25:04.934Z,7.04
2019-02-17T00:30:01.822Z,7.02
2019-02-17T00:35:04.611Z,7.11
2019-02-17T00:40:04.307Z,7.03
2019-02-17T00:45:02.502Z,7
2019-02-17T00:50:04.449Z,6.99
2019-02-17T00:55:03.976Z,7.12
2019-02-17T01:00:02.287Z,7.2
2019-02-17T01:05:04.280Z,7.18
2019-02-17T01:10:03.272Z,7.02
2019-02-17T01:15:03.126Z,6.87
2019-02-17T01:20:02.739Z,6.82
2019-02-17T01:25:02.720Z,6.97
2019-02-17T01:30:02.567Z,6.97
2019-02-17T01:35:02.905Z,6.86
2019-02-17T01:40:04.737Z,6.78
2019-02-17T01:45:07.192Z,6.74
2019-02-17T01:50:03.484Z,6.72
2019-02-17T01:55:04.965Z,6.61
2019-02-17T02:00:03.252Z,6.49
2019-02-17T02:05:09.849Z,6.43
2019-02-17T02:10:11.719Z,6.4
2019-02-17T02:15:07.810Z,6.4
2019-02-17T02:20:04.392Z,6.38
2019-02-17T02:25:05.743Z,6.3
2019-02-17T02:30:05.422Z,6.22
2019-02-17T02:35:04.224Z,6.08
2019-02-17T02:40:03.723Z,6
2019-02-17T02:45:02.359Z,5.96
2019-02-17T02:50:03.842Z,5.8
2019-02-17T02:55:03.997Z,5.86
2019-02-17T03:00:03.187Z,5.99
2019-02-17T03:05:03.807Z,6
2019-02-17T03:10:03.938Z,5.96
2019-02-17T03:15:03.592Z,5.96
2019-02-17T03:20:06.236Z,5.93
2019-02-17T03:25:05.979Z,5.94
2019-02-17T03:30:06.400Z,6.15
2019-02-17T03:35:06.432Z,6.4
2019-02-17T03:40:05.125Z,6.53
2019-02-17T03:45:03.824Z,6.52
2019-02-17T03:50:06.404Z,6.49
2019-02-17T03:55:05.592Z,6.45
2019-02-17T04:00:15.965Z,6.39
2019-02-17T04:05:06.004Z,6.33
2019-02-17T04:10:03.503Z,6.34
2019-02-17T04:15:03.898Z,6.31
2019-02-17T04:20:04.026Z,6.28
2019-02-17T04:25:06.068Z,6.28
2019-02-17T04:30:03.046Z,6.27
2019-02-17T04:35:05.358Z,6.37
2019-02-17T04:40:05.032Z,6.3
2019-02-17T04:45:03.066Z,6.23
2019-02-17T04:50:05.244Z,6.16
2019-02-17T04:55:04.238Z,6.13
2019-02-17T05:00:02.015Z,6.06
2019-02-17T05:05:05.717Z,5.97
2019-02-17T05:10:03.274Z,5.86
2019-02-17T05:15:02.833Z,5.75
2019-02-17T05:20:03.474Z,5.56
2019-02-17T05:25:04.648Z,5.45
2019-02-17T05:30:02.250Z,5.4
2019-02-17T05:35:03.530Z,5.26
2019-02-17T05:40:03.914Z,5.16
2019-02-17T05:45:02.404Z,5.15
2019-02-17T05:50:04.548Z,5.1
2019-02-17T05:55:04.402Z,5.06
2019-02-17T06:00:01.877Z,5.1
2019-02-17T06:05:04.507Z,5.15
2019-02-17T06:10:03.175Z,5.13
2019-02-17T06:15:01.859Z,5.11
2019-02-17T06:20:04.090Z,5.1
2019-02-17T06:25:04.662Z,5.05
2019-02-17T06:30:02.206Z,5.1
2019-02-17T06:35:04.244Z,5.06
2019-02-17T06:40:04.504Z,4.93
2019-02-17T06:45:02.100Z,4.94
2019-02-17T06:50:04.600Z,4.86
2019-02-17T06:55:03.239Z,4.79
2019-02-17T07:00:02.498Z,4.68
2019-02-17T07:05:02.753Z,4.69
2019-02-17T07:10:03.320Z,4.75
2019-02-17T07:15:02.038Z,4.82
2019-02-17T07:20:03.165Z,4.92
2019-02-17T07:25:03.726Z,5.08
2019-02-17T07:30:03.020Z,5.23
2019-02-17T07:35:03.284Z,5.38
2019-02-17T07:40:02.692Z,5.45
2019-02-17T07:45:01.816Z,5.69
2019-02-17T07:50:02.896Z,5.82
2019-02-17T07:55:02.730Z,6.06
2019-02-17T08:00:02.056Z,6.21
2019-02-17T08:05:04.721Z,6.5
2019-02-17T08:10:02.363Z,6.67
2019-02-17T08:15:03.827Z,6.91
2019-02-17T08:20:04.233Z,7.08
2019-02-17T08:25:06.311Z,7.31
2019-02-17T08:30:02.514Z,7.43
2019-02-17T08:35:04.430Z,7.63
2019-02-17T08:40:05.167Z,7.85
2019-02-17T08:45:03.209Z,7.96
2019-02-17T08:50:05.510Z,8.17
2019-02-17T08:55:04.373Z,8.28
2019-02-17T09:00:02.681Z,8.38
2019-02-17T09:05:04.802Z,8.55
2019-02-17T09:10:03.700Z,8.82
2019-02-17T09:15:03.245Z,9.21
2019-02-17T09:20:05.192Z,9.3
2019-02-17T09:25:05.090Z,9.34
2019-02-17T09:30:03.200Z,9.33
2019-02-17T09:35:04.619Z,9.24
2019-02-17T09:40:04.026Z,9.41
2019-02-17T09:45:02.405Z,9.55
2019-02-17T09:50:04.677Z,9.89
2019-02-17T09:55:03.966Z,10.31
2019-02-17T10:00:02.354Z,10.73
2019-02-17T10:05:04.664Z,10.71
2019-02-17T10:10:04.479Z,10.89
2019-02-17T10:15:03.068Z,10.59
2019-02-17T10:20:03.959Z,10.78
2019-02-17T10:25:05.059Z,10.86
2019-02-17T10:30:02.577Z,10.97
2019-02-17T10:35:03.962Z,11.14
2019-02-17T10:40:04.989Z,11.31
2019-02-17T10:45:01.982Z,11.3
2019-02-17T10:50:04.338Z,11.51
2019-02-17T10:55:05.772Z,11.82
2019-02-17T11:00:02.744Z,11.75
2019-02-17T11:05:04.123Z,11.92
2019-02-17T11:10:05.622Z,11.85
2019-02-17T11:15:01.959Z,12.05
2019-02-17T11:20:04.355Z,12.08
2019-02-17T11:25:06.030Z,12.08
2019-02-17T11:30:02.440Z,12.34
2019-02-17T11:35:04.264Z,12.48
2019-02-17T11:40:05.790Z,12.65
2019-02-17T11:45:02.462Z,12.75
2019-02-17T11:50:04.966Z,12.94
2019-02-17T11:55:05.917Z,13.36
2019-02-17T12:00:03.012Z,13.39
2019-02-17T12:05:05.256Z,13.18
2019-02-17T12:10:04.451Z,13.33
2019-02-17T12:15:02.170Z,13.35
2019-02-17T12:20:02.864Z,13.62
2019-02-17T12:25:03.088Z,13.79
2019-02-17T12:30:02.264Z,13.86
2019-02-17T12:35:02.558Z,13.96
2019-02-17T12:40:03.650Z,13.9
2019-02-17T12:45:02.646Z,13.89
2019-02-17T12:50:05.036Z,13.82
2019-02-17T12:55:04.713Z,13.64
2019-02-17T13:00:02.708Z,13.67
2019-02-17T13:05:04.152Z,13.75
2019-02-17T13:10:05.104Z,13.7
2019-02-17T13:15:02.814Z,13.92
2019-02-17T13:20:04.220Z,13.93
2019-02-17T13:25:04.775Z,13.98
2019-02-17T13:30:02.604Z,14.14
2019-02-17T13:35:03.965Z,14.28
2019-02-17T13:40:05.017Z,14.38
2019-02-17T13:45:02.713Z,14.38
2019-02-17T13:50:04.065Z,14.44
2019-02-17T13:55:05.507Z,14.53
2019-02-17T14:00:03.835Z,14.53
2019-02-17T14:05:05.223Z,14.48
2019-02-17T14:10:04.306Z,14.5
2019-02-17T14:15:02.990Z,14.64
2019-02-17T14:20:04.709Z,14.69
2019-02-17T14:25:05.154Z,14.77
2019-02-17T14:30:02.859Z,14.84
2019-02-17T14:35:05.534Z,14.87
2019-02-17T14:40:04.984Z,14.86
2019-02-17T14:45:02.878Z,14.89
2019-02-17T14:50:04.233Z,14.88
2019-02-17T14:55:04.181Z,14.86
2019-02-17T15:00:02.811Z,14.83
2019-02-17T15:05:03.878Z,14.83
2019-02-17T15:10:04.819Z,14.86
2019-02-17T15:15:02.491Z,14.87
2019-02-17T15:20:04.340Z,14.83
2019-02-17T15:25:04.731Z,14.84
2019-02-17T15:30:03.051Z,14.83
2019-02-17T15:35:03.943Z,14.86
2019-02-17T15:40:04.846Z,14.79
2019-02-17T15:45:02.746Z,14.73
2019-02-17T15:50:03.828Z,14.73
2019-02-17T15:55:05.298Z,14.62
2019-02-17T16:00:03.854Z,14.6
2019-02-17T16:05:05.201Z,14.65
2019-02-17T16:10:03.902Z,14.58
2019-02-17T16:15:02.785Z,14.51
2019-02-17T16:20:05.297Z,14.36
2019-02-17T16:25:04.690Z,14.15
2019-02-17T16:30:02.891Z,13.99
2019-02-17T16:35:04.225Z,13.83
2019-02-17T16:40:04.403Z,13.68
2019-02-17T16:45:02.760Z,13.63
2019-02-17T16:50:03.530Z,13.4
2019-02-17T16:55:04.170Z,13.23
2019-02-17T17:00:02.753Z,12.92
2019-02-17T17:05:04.471Z,12.74
2019-02-17T17:10:03.179Z,12.65
2019-02-17T17:15:04.040Z,12.59
2019-02-17T17:20:04.118Z,12.7
2019-02-17T17:25:04.877Z,12.67
2019-02-17T17:30:02.496Z,12.34
2019-02-17T17:35:04.251Z,12.03
2019-02-17T17:40:04.079Z,11.43
2019-02-17T17:45:03.120Z,10.98
2019-02-17T17:50:04.054Z,10.48
2019-02-17T17:55:03.957Z,10.93
2019-02-17T18:00:02.340Z,11.45
2019-02-17T18:05:09.003Z,11.42
2019-02-17T18:10:04.581Z,11.17
2019-02-17T18:15:02.084Z,10.88
2019-02-17T18:20:04.206Z,10.99
2019-02-17T18:25:05.095Z,10.85
2019-02-17T18:30:02.509Z,10.77
2019-02-17T18:35:04.702Z,10.5
2019-02-17T18:40:04.230Z,10.3
2019-02-17T18:45:02.713Z,10.38
2019-02-17T18:50:04.535Z,10.67
2019-02-17T18:55:04.580Z,10.78
2019-02-17T19:00:02.639Z,10.86
2019-02-17T19:05:04.220Z,10.79
2019-02-17T19:10:04.441Z,10.62
2019-02-17T19:15:02.111Z,10.46
2019-02-17T19:20:04.503Z,10.24
2019-02-17T19:25:04.373Z,10.09
2019-02-17T19:30:01.929Z,9.98
2019-02-17T19:35:03.910Z,9.99
2019-02-17T19:40:02.514Z,9.99
2019-02-17T19:45:02.057Z,9.86
2019-02-17T19:50:03.136Z,10.1
2019-02-17T19:55:04.769Z,10.03
2019-02-17T20:00:02.848Z,9.86
2019-02-17T20:05:03.751Z,9.82
2019-02-17T20:10:04.040Z,9.83
2019-02-17T20:15:03.052Z,9.85
2019-02-17T20:20:04.432Z,9.67
2019-02-17T20:25:05.614Z,9.67
2019-02-17T20:30:02.846Z,9.44
2019-02-17T20:35:06.375Z,9.18
2019-02-17T20:40:05.711Z,9.2
2019-02-17T20:45:06.445Z,9.25
2019-02-17T20:50:08.441Z,9.51
2019-02-17T20:55:06.067Z,9.65
2019-02-17T21:00:06.054Z,9.67
2019-02-17T21:05:06.215Z,9.92
2019-02-17T21:10:10.978Z,10.08
2019-02-17T21:15:06.359Z,10.07
2019-02-17T21:20:05.173Z,10.09
2019-02-17T21:25:06.540Z,10.12
2019-02-17T21:30:07.953Z,9.93
2019-02-17T21:35:04.600Z,9.53
2019-02-17T21:40:08.628Z,9.49
2019-02-17T21:45:08.202Z,9.6
2019-02-17T21:50:08.182Z,9.49
2019-02-17T21:55:08.475Z,9.34
2019-02-17T22:00:06.593Z,8.89
2019-02-17T22:05:04.857Z,8.7
2019-02-17T22:10:05.842Z,8.64
2019-02-17T22:15:03.651Z,8.77
2019-02-17T22:20:03.780Z,8.79
2019-02-17T22:25:04.481Z,8.55
2019-02-17T22:30:03.841Z,8.51
2019-02-17T22:35:05.874Z,8.42
2019-02-17T22:40:07.236Z,8.57
2019-02-17T22:45:08.141Z,8.57
2019-02-17T22:50:07.524Z,8.55
2019-02-17T22:55:07.894Z,8.47
2019-02-17T23:00:06.187Z,8.41
2019-02-17T23:05:04.746Z,8.38
2019-02-17T23:10:04.913Z,8.38
2019-02-17T23:15:06.589Z,8.39
2019-02-17T23:20:06.897Z,8.33
2019-02-17T23:25:07.291Z,8.26
2019-02-17T23:30:07.128Z,8.11
2019-02-17T23:35:07.682Z,7.91
2019-02-17T23:40:07.858Z,7.82
2019-02-17T23:45:06.915Z,7.72
2019-02-17T23:50:04.652Z,7.72
2019-02-17T23:55:06.837Z,7.74
